DTTX/SFA METAR and TAF weather

Enter ICAO airport designator
Station Type Date Time Source
DTTX METAR 2018/12/18 12:00 UTC NOAA

DTTX 181200Z 30012KT 270V340 9999 FEW020 18/03 Q1027 NOSIG


Station Type Date Time Source
DTTX Decoded METAR 2018/12/18 12:00 UTC NOAA

Sfax El-Maou, Tunisia (DTTX) 34-43N 010-41E 23M
Dec 18, 2018 - 07:00 AM EST / 2018.12.18 1200 UTC
Wind: from the WNW (300 degrees) at 14 MPH (12 KT) (direction variable):0
Visibility: greater than 7 mile(s):0
Sky conditions: mostly clear
Temperature: 64 F (18 C)
Dew Point: 37 F (3 C)
Relative Humidity: 36%
Pressure (altimeter): 30.33 in. Hg (1027 hPa)
ob: DTTX 181200Z 30012KT 270V340 9999 FEW020 18/03 Q1027 NOSIG
cycle: 12

Station Type Date Time Source
DTTX TAF 2018/12/18 12:18 UTC NOAA

TAF DTTX 181100Z 1812/1912 30012KT 9999 FEW030
BECMG 18/1814 VRB02KT PROB40
TEMPO 1902/1907 4000 BR


Example: see airport list